Pays
Station

 

Conditions  météo  pour  Springbok  -  Afrique Du Sud    Afrique Du Sud

  
26 °C
    
 
 

METAR pour Springbok :

FASB 210946Z 08023KT CAVOK 26/M01 Q1019

 

Voici le bulletin pour Springbok - Afrique Du Sud.
 
Le bulletin a été fait il y a 13 heures et 20 minutes, à 09:46 UTC .
Le vent soufflait à la vitesse de 11.8 mètres par seconde de Est (080°).
 
La température était de 26 °C, avec un point de rosée à -1 °C.
La température ressentie était de 26 °C.
 
La pression atmosphérique était de 1019 hPa.
L'humidité relative était de 16.9%.
 
Il y avait pas de nuages en-dessous de 1500 mètres et pas de cumulonimbus.
 
La visibilité globale était de supérieure à 10 kilomètres.
 

 
 
 

Pays :   A   B   C   D   E   F   G   H   I   J   K   L   M   N   O   P   Q   R   S   T   U   V   W   Y   Z

 

Partenaires :  Info Météo avec Met'info
Météo Marine avec MeteoMarine.net
Infos Site  |  Infos Légales  |  Crédits  |  Confidentialité
Contactez-nous  |  Ajouter aux favoris
© 2013-2018 METAR - Tous droits réservés